Time;durP1;ratioP1;P1;durP2;ratioP2;P2;SDS_P1;SDS_P2;PMS_P1;PMS_P2;Temp;Humidity;BMP_temperature;BMP_pressure;BME280_temperature;BME280_humidity;BME280_pressure;Samples;Min_cycle;Max_cycle;Signal;HPM_P1;HPM_P2
2022/04/16 00:01:53;;;;;;;5.63;2.50;;;;;;;;;;5031624;28;20120;-87
2022/04/16 00:04:21;;;;;;;5.05;2.85;;;;;;;;;;5027422;28;20079;-87
2022/04/16 00:06:49;;;;;;;5.60;2.70;;;;;;;;;;5035043;28;20050;-87
2022/04/16 00:09:17;;;;;;;7.07;2.45;;;;;;;;;;5015192;28;20046;-85
2022/04/16 00:11:47;;;;;;;4.78;2.45;;;;;;;;;;5016814;28;20476;-85
2022/04/16 00:14:15;;;;;;;5.20;2.47;;;;;;;;;;5017426;28;20107;-85
2022/04/16 00:16:44;;;;;;;7.85;2.30;;;;;;;;;;5033838;28;20091;-85
2022/04/16 00:19:11;;;;;;;4.38;2.60;;;;;;;;;;5015839;28;20092;-86
2022/04/16 00:21:38;;;;;;;6.65;2.70;;;;;;;;;;5031063;28;20073;-88
2022/04/16 00:24:07;;;;;;;4.82;2.53;;;;;;;;;;5037401;28;20042;-86
2022/04/16 00:26:40;;;;;;;4.68;2.70;;;;;;;;;;5033378;28;20041;-85
2022/04/16 00:29:12;;;;;;;5.05;2.78;;;;;;;;;;5029069;28;20053;-86
2022/04/16 00:31:39;;;;;;;4.85;2.75;;;;;;;;;;5028293;28;20052;-86
2022/04/16 00:34:13;;;;;;;5.55;2.53;;;;;;;;;;5031935;28;20046;-85
2022/04/16 00:36:45;;;;;;;5.75;2.40;;;;;;;;;;5029344;28;20109;-86
2022/04/16 00:39:13;;;;;;;6.05;2.97;;;;;;;;;;5030582;28;20099;-85
2022/04/16 00:41:41;;;;;;;5.05;2.83;;;;;;;;;;5015109;28;20072;-85
2022/04/16 00:44:11;;;;;;;7.22;3.28;;;;;;;;;;5031955;28;20095;-88
2022/04/16 00:46:38;;;;;;;5.15;2.95;;;;;;;;;;5010258;28;20056;-88
2022/04/16 00:49:07;;;;;;;5.85;3.55;;;;;;;;;;4997083;28;20060;-85
2022/04/16 00:51:34;;;;;;;5.93;3.10;;;;;;;;;;5010517;28;20080;-85
2022/04/16 00:54:02;;;;;;;4.90;2.70;;;;;;;;;;5030669;28;20041;-86
2022/04/16 00:56:29;;;;;;;6.13;2.88;;;;;;;;;;5011997;28;20045;-85
2022/04/16 00:58:58;;;;;;;5.13;2.72;;;;;;;;;;4998622;28;20477;-91
2022/04/16 01:01:27;;;;;;;4.43;2.80;;;;;;;;;;5011098;28;20072;-85
2022/04/16 01:03:55;;;;;;;5.47;2.88;;;;;;;;;;5032133;28;20078;-86
2022/04/16 01:06:26;;;;;;;8.68;3.25;;;;;;;;;;5014743;28;20049;-87
2022/04/16 01:08:54;;;;;;;4.22;2.60;;;;;;;;;;5013127;28;20049;-85
2022/04/16 01:11:22;;;;;;;6.45;2.80;;;;;;;;;;5032529;28;20120;-86
2022/04/16 01:13:49;;;;;;;5.55;2.60;;;;;;;;;;5013473;28;20188;-86
2022/04/16 01:16:16;;;;;;;4.25;2.60;;;;;;;;;;5011674;28;20049;-87
2022/04/16 01:18:48;;;;;;;5.63;2.53;;;;;;;;;;5016356;28;20482;-86
2022/04/16 01:21:17;;;;;;;6.00;2.72;;;;;;;;;;5033087;28;20053;-86
2022/04/16 01:23:46;;;;;;;5.43;2.58;;;;;;;;;;5032415;28;20041;-86
2022/04/16 01:26:14;;;;;;;3.78;2.22;;;;;;;;;;5012569;28;20483;-85
2022/04/16 01:28:43;;;;;;;4.25;2.42;;;;;;;;;;5011239;28;20048;-87
2022/04/16 01:31:12;;;;;;;4.35;2.50;;;;;;;;;;5019552;28;20057;-88
2022/04/16 01:33:48;;;;;;;4.35;2.20;;;;;;;;;;4976080;28;20042;-90
2022/04/16 01:36:15;;;;;;;3.85;2.40;;;;;;;;;;4993528;28;20046;-86
2022/04/16 01:38:42;;;;;;;5.70;2.85;;;;;;;;;;5012958;28;20074;-89
2022/04/16 01:41:11;;;;;;;4.97;2.28;;;;;;;;;;5008930;28;20050;-86
2022/04/16 01:43:38;;;;;;;4.18;2.30;;;;;;;;;;5011068;28;20078;-86
2022/04/16 01:46:07;;;;;;;4.85;1.90;;;;;;;;;;5025585;28;20049;-86
2022/04/16 01:48:34;;;;;;;4.28;1.90;;;;;;;;;;5017233;28;20443;-86
2022/04/16 01:51:02;;;;;;;3.60;2.08;;;;;;;;;;5015144;28;20049;-86
2022/04/16 01:53:30;;;;;;;5.05;2.60;;;;;;;;;;5012272;28;20084;-87
2022/04/16 01:55:58;;;;;;;5.40;2.30;;;;;;;;;;5017903;28;20049;-88
2022/04/16 01:58:31;;;;;;;5.88;2.25;;;;;;;;;;5017597;28;20069;-87
2022/04/16 02:00:58;;;;;;;3.08;1.70;;;;;;;;;;5022715;28;20064;-86
2022/04/16 02:03:27;;;;;;;5.53;2.53;;;;;;;;;;5024229;28;20092;-87
2022/04/16 02:13:49;;;;;;;4.05;2.25;;;;;;;;;;4997136;28;20085;-87
2022/04/16 02:16:16;;;;;;;3.97;2.10;;;;;;;;;;4993571;28;20147;-85
2022/04/16 02:18:44;;;;;;;5.47;2.28;;;;;;;;;;4965794;28;20486;-88
2022/04/16 02:21:11;;;;;;;4.72;2.35;;;;;;;;;;4993747;28;20106;-85
2022/04/16 02:23:40;;;;;;;5.22;2.10;;;;;;;;;;4976820;28;20060;-86
2022/04/16 02:26:09;;;;;;;3.90;1.88;;;;;;;;;;4963177;28;20050;-85
2022/04/16 02:28:36;;;;;;;4.95;2.53;;;;;;;;;;4996770;28;20599;-85
2022/04/16 02:31:06;;;;;;;3.85;1.92;;;;;;;;;;4997637;28;20477;-88
2022/04/16 02:33:33;;;;;;;4.78;2.28;;;;;;;;;;4994540;28;20038;-86
2022/04/16 02:36:01;;;;;;;4.18;2.15;;;;;;;;;;4998613;28;20494;-87
2022/04/16 02:38:28;;;;;;;5.63;2.42;;;;;;;;;;4989479;28;20074;-85
2022/04/16 02:40:56;;;;;;;4.82;2.35;;;;;;;;;;4989661;28;20065;-85
2022/04/16 02:43:23;;;;;;;4.32;2.42;;;;;;;;;;4962278;28;20042;-85
2022/04/16 02:48:36;;;;;;;5.97;2.78;;;;;;;;;;4976150;28;20053;-91
2022/04/16 02:51:03;;;;;;;4.75;2.55;;;;;;;;;;4973652;28;20062;-86
2022/04/16 02:53:31;;;;;;;4.45;2.10;;;;;;;;;;4978208;28;20112;-85
2022/04/16 02:55:59;;;;;;;4.50;2.28;;;;;;;;;;4994636;28;20050;-86
2022/04/16 02:58:26;;;;;;;4.65;1.88;;;;;;;;;;4995622;28;20050;-85
2022/04/16 03:00:54;;;;;;;4.32;2.40;;;;;;;;;;4997863;28;20449;-85
2022/04/16 03:03:21;;;;;;;3.28;1.75;;;;;;;;;;4962683;28;20046;-85
2022/04/16 03:05:51;;;;;;;3.83;1.88;;;;;;;;;;4979657;28;20050;-85
2022/04/16 03:08:18;;;;;;;5.50;2.45;;;;;;;;;;4974938;28;20078;-85
2022/04/16 03:10:45;;;;;;;4.30;1.80;;;;;;;;;;4971132;28;20074;-86
2022/04/16 03:13:12;;;;;;;6.03;2.78;;;;;;;;;;4991714;28;20092;-88
2022/04/16 03:18:23;;;;;;;5.25;2.00;;;;;;;;;;4991942;28;20064;-86
2022/04/16 03:20:52;;;;;;;3.97;1.85;;;;;;;;;;4975337;28;20305;-86
2022/04/16 03:23:21;;;;;;;7.22;2.10;;;;;;;;;;5011757;28;20157;-86
2022/04/16 03:25:48;;;;;;;4.82;2.20;;;;;;;;;;5009835;28;20074;-87
2022/04/16 03:28:16;;;;;;;4.47;2.78;;;;;;;;;;4995138;28;20125;-86
2022/04/16 03:30:43;;;;;;;3.78;1.90;;;;;;;;;;5012161;28;20073;-86
2022/04/16 03:33:13;;;;;;;4.93;2.50;;;;;;;;;;4981860;28;20050;-86
2022/04/16 03:35:41;;;;;;;5.32;2.28;;;;;;;;;;5014035;28;20111;-85
2022/04/16 03:38:10;;;;;;;3.83;2.03;;;;;;;;;;4992557;28;20516;-85
2022/04/16 03:40:38;;;;;;;6.00;2.60;;;;;;;;;;5008699;28;20096;-86
2022/04/16 03:43:05;;;;;;;5.00;2.35;;;;;;;;;;4978415;28;20045;-86
2022/04/16 03:45:36;;;;;;;4.38;2.38;;;;;;;;;;4993142;28;20139;-87
2022/04/16 03:48:05;;;;;;;4.22;2.22;;;;;;;;;;5012238;28;20049;-90
2022/04/16 03:50:34;;;;;;;5.28;2.13;;;;;;;;;;4993747;28;20042;-86
2022/04/16 03:53:02;;;;;;;4.30;2.25;;;;;;;;;;5012874;28;20038;-86
2022/04/16 04:00:59;;;;;;;4.00;2.10;;;;;;;;;;5013186;28;20056;-86
2022/04/16 04:03:27;;;;;;;4.22;2.63;;;;;;;;;;5010885;28;20050;-86
2022/04/16 04:05:56;;;;;;;4.85;2.25;;;;;;;;;;5014755;28;20131;-88
2022/04/16 04:08:25;;;;;;;3.95;2.33;;;;;;;;;;5002653;28;20053;-86
2022/04/16 04:10:55;;;;;;;3.88;2.00;;;;;;;;;;4996911;28;20132;-87
2022/04/16 04:13:23;;;;;;;7.63;2.55;;;;;;;;;;4998788;28;20140;-86
2022/04/16 04:15:51;;;;;;;5.45;2.65;;;;;;;;;;4977230;28;20497;-87
2022/04/16 04:18:18;;;;;;;5.00;2.63;;;;;;;;;;4976219;28;20054;-87
2022/04/16 04:20:45;;;;;;;5.07;2.40;;;;;;;;;;4977087;28;20479;-86
2022/04/16 04:23:13;;;;;;;6.40;2.85;;;;;;;;;;4978759;28;20057;-88
2022/04/16 04:25:41;;;;;;;5.22;2.78;;;;;;;;;;4998015;28;20073;-86
2022/04/16 04:28:10;;;;;;;4.70;2.65;;;;;;;;;;4977684;28;20124;-85
2022/04/16 04:30:37;;;;;;;5.63;2.80;;;;;;;;;;4988466;28;20343;-86
2022/04/16 04:33:04;;;;;;;5.07;2.78;;;;;;;;;;4996250;28;20051;-88
2022/04/16 04:35:34;;;;;;;3.85;2.42;;;;;;;;;;4976377;28;20104;-86
2022/04/16 04:38:04;;;;;;;5.45;3.05;;;;;;;;;;4998739;28;20081;-85
2022/04/16 04:40:31;;;;;;;5.05;2.72;;;;;;;;;;4992847;28;20038;-84
2022/04/16 04:42:59;;;;;;;6.82;2.67;;;;;;;;;;4994940;28;20290;-86
2022/04/16 04:45:28;;;;;;;7.47;2.13;;;;;;;;;;4996296;28;20069;-86
2022/04/16 04:47:56;;;;;;;3.97;2.20;;;;;;;;;;4971352;28;20065;-86
2022/04/16 04:50:23;;;;;;;5.25;2.80;;;;;;;;;;4946652;28;20050;-86
2022/04/16 04:52:51;;;;;;;4.97;2.05;;;;;;;;;;4969292;28;20502;-86
2022/04/16 04:55:19;;;;;;;3.70;2.55;;;;;;;;;;4989345;28;20140;-86
2022/04/16 04:57:48;;;;;;;4.90;2.10;;;;;;;;;;4995963;28;20102;-87
2022/04/16 05:00:17;;;;;;;5.35;2.30;;;;;;;;;;4959405;28;20050;-86
2022/04/16 05:02:51;;;;;;;4.28;2.55;;;;;;;;;;4971709;28;20043;-86
2022/04/16 05:05:19;;;;;;;4.43;2.08;;;;;;;;;;4978714;28;20050;-86
2022/04/16 05:07:46;;;;;;;5.32;2.20;;;;;;;;;;4997062;28;20093;-89
2022/04/16 05:10:16;;;;;;;5.63;3.28;;;;;;;;;;4992121;28;20422;-86
2022/04/16 05:12:46;;;;;;;6.15;2.97;;;;;;;;;;5002243;28;20119;-86
2022/04/16 05:15:13;;;;;;;4.25;2.47;;;;;;;;;;4994960;28;20080;-85
2022/04/16 05:17:40;;;;;;;5.57;2.67;;;;;;;;;;5022189;28;20085;-87
2022/04/16 05:20:10;;;;;;;5.28;2.85;;;;;;;;;;4998241;28;20050;-89
2022/04/16 05:22:38;;;;;;;4.80;2.63;;;;;;;;;;5000443;28;20074;-89
2022/04/16 05:25:06;;;;;;;4.65;2.78;;;;;;;;;;5013292;28;20443;-87
2022/04/16 05:27:34;;;;;;;4.65;2.42;;;;;;;;;;4995656;28;20661;-88
2022/04/16 05:30:14;;;;;;;4.57;2.80;;;;;;;;;;5011528;28;20089;-87
2022/04/16 05:32:45;;;;;;;5.30;2.75;;;;;;;;;;4993727;28;20046;-86
2022/04/16 05:35:14;;;;;;;4.95;2.40;;;;;;;;;;5012825;28;20068;-88
2022/04/16 05:37:41;;;;;;;4.57;2.45;;;;;;;;;;4992773;28;20082;-85
2022/04/16 05:40:11;;;;;;;5.32;2.97;;;;;;;;;;4996209;28;20065;-87
2022/04/16 05:42:41;;;;;;;6.88;2.85;;;;;;;;;;5006380;28;20719;-86
2022/04/16 05:45:09;;;;;;;9.77;4.35;;;;;;;;;;5012792;28;20520;-87
2022/04/16 05:47:37;;;;;;;6.60;3.65;;;;;;;;;;4997937;28;20073;-86
2022/04/16 05:50:06;;;;;;;8.55;4.00;;;;;;;;;;5008515;28;20069;-89
2022/04/16 05:52:37;;;;;;;9.48;3.20;;;;;;;;;;5005812;28;20080;-86
2022/04/16 05:55:05;;;;;;;8.82;3.45;;;;;;;;;;4995961;28;20070;-86
2022/04/16 05:57:32;;;;;;;6.28;3.25;;;;;;;;;;5013298;28;20498;-88
2022/04/16 06:00:00;;;;;;;6.43;3.30;;;;;;;;;;4980678;28;20081;-85
2022/04/16 06:02:28;;;;;;;6.05;2.50;;;;;;;;;;4995720;28;20045;-85
2022/04/16 06:04:55;;;;;;;8.20;3.50;;;;;;;;;;5005222;28;20089;-89
2022/04/16 06:07:23;;;;;;;5.38;2.83;;;;;;;;;;5001270;28;20472;-87
2022/04/16 06:09:54;;;;;;;7.45;3.22;;;;;;;;;;5004042;28;20072;-88
2022/04/16 06:12:22;;;;;;;9.73;2.85;;;;;;;;;;5003248;28;20092;-89
2022/04/16 06:14:52;;;;;;;8.82;3.72;;;;;;;;;;4985956;28;20058;-89
2022/04/16 06:17:19;;;;;;;8.05;4.25;;;;;;;;;;4976164;28;20419;-88
2022/04/16 06:19:46;;;;;;;10.10;5.82;;;;;;;;;;4993097;28;20081;-84
2022/04/16 06:22:13;;;;;;;10.85;6.05;;;;;;;;;;4995462;28;20046;-87
2022/04/16 06:24:41;;;;;;;6.72;4.47;;;;;;;;;;5007655;28;20781;-88
2022/04/16 06:27:11;;;;;;;9.40;4.72;;;;;;;;;;5003078;28;20046;-86
2022/04/16 06:29:38;;;;;;;7.18;4.15;;;;;;;;;;4992996;28;20057;-88
2022/04/16 06:32:06;;;;;;;6.50;4.00;;;;;;;;;;4994540;28;20049;-87
2022/04/16 06:34:35;;;;;;;9.02;6.32;;;;;;;;;;5014238;28;20096;-87
2022/04/16 06:37:03;;;;;;;9.45;6.15;;;;;;;;;;5012905;28;20069;-87
2022/04/16 06:39:30;;;;;;;7.75;4.82;;;;;;;;;;4978242;28;20053;-87
2022/04/16 06:41:57;;;;;;;8.02;4.47;;;;;;;;;;4994063;28;20574;-87
2022/04/16 06:44:29;;;;;;;7.07;4.65;;;;;;;;;;4994169;28;20509;-87
2022/04/16 06:46:57;;;;;;;8.00;5.07;;;;;;;;;;4979010;28;20054;-87
2022/04/16 06:49:25;;;;;;;6.95;4.40;;;;;;;;;;4995582;28;20096;-87
2022/04/16 06:51:52;;;;;;;8.25;4.40;;;;;;;;;;4977038;28;20498;-86
2022/04/16 06:54:19;;;;;;;7.35;4.43;;;;;;;;;;4997135;28;20058;-86
2022/04/16 06:56:47;;;;;;;6.47;4.13;;;;;;;;;;4997712;28;20132;-86
2022/04/16 06:59:14;;;;;;;6.28;3.70;;;;;;;;;;4997987;28;20520;-86
2022/04/16 07:01:45;;;;;;;9.27;4.30;;;;;;;;;;5013729;28;20104;-86
2022/04/16 07:04:13;;;;;;;6.75;3.97;;;;;;;;;;5009789;28;20074;-81
2022/04/16 07:06:42;;;;;;;6.28;3.90;;;;;;;;;;5014430;28;20054;-85
2022/04/16 07:09:11;;;;;;;6.63;4.05;;;;;;;;;;5015666;28;21693;-83
2022/04/16 07:11:38;;;;;;;10.13;4.22;;;;;;;;;;4993096;28;20045;-85
2022/04/16 07:14:06;;;;;;;9.18;4.50;;;;;;;;;;5015032;28;20128;-86
2022/04/16 07:16:34;;;;;;;6.95;3.78;;;;;;;;;;5012059;28;20042;-86
2022/04/16 07:19:03;;;;;;;7.20;3.72;;;;;;;;;;4992665;28;20053;-86
2022/04/16 07:21:30;;;;;;;7.93;4.10;;;;;;;;;;5013740;28;20058;-85
2022/04/16 07:23:57;;;;;;;7.35;3.95;;;;;;;;;;5000121;28;20078;-87
2022/04/16 07:26:26;;;;;;;7.15;3.83;;;;;;;;;;4997900;28;20074;-85
2022/04/16 07:28:53;;;;;;;7.00;3.45;;;;;;;;;;5012933;28;20081;-86
2022/04/16 07:31:20;;;;;;;6.35;3.75;;;;;;;;;;5000359;28;20054;-85
2022/04/16 07:33:47;;;;;;;6.60;3.72;;;;;;;;;;4998246;28;20042;-82
2022/04/16 07:36:16;;;;;;;6.20;3.60;;;;;;;;;;5010693;28;20447;-82
2022/04/16 07:38:44;;;;;;;7.10;4.05;;;;;;;;;;5026226;28;20069;-86
2022/04/16 07:41:11;;;;;;;6.55;4.20;;;;;;;;;;5018584;28;20657;-85
2022/04/16 07:43:38;;;;;;;6.93;3.85;;;;;;;;;;5000315;28;20103;-85
2022/04/16 07:46:07;;;;;;;6.72;3.83;;;;;;;;;;5015378;28;20073;-85
2022/04/16 07:48:35;;;;;;;8.07;4.20;;;;;;;;;;5015829;28;20077;-87
2022/04/16 07:51:02;;;;;;;8.65;4.43;;;;;;;;;;5015522;28;20041;-86
2022/04/16 07:53:34;;;;;;;6.72;3.63;;;;;;;;;;5000691;28;20112;-85
2022/04/16 07:56:01;;;;;;;8.88;5.68;;;;;;;;;;4983210;28;20053;-85
2022/04/16 07:58:28;;;;;;;8.05;4.50;;;;;;;;;;4981300;28;20486;-86
2022/04/16 08:00:57;;;;;;;6.85;3.70;;;;;;;;;;5006232;28;20065;-86
2022/04/16 08:03:24;;;;;;;7.85;3.90;;;;;;;;;;4997691;28;20054;-85
2022/04/16 08:05:54;;;;;;;6.97;3.70;;;;;;;;;;5003483;28;20048;-85
2022/04/16 08:08:20;;;;;;;8.68;4.13;;;;;;;;;;5034261;28;20076;-85
2022/04/16 08:10:51;;;;;;;7.68;4.68;;;;;;;;;;5026091;28;20478;-86
2022/04/16 08:13:18;;;;;;;8.55;4.72;;;;;;;;;;5018681;28;20091;-86
2022/04/16 08:15:46;;;;;;;7.80;4.55;;;;;;;;;;5015598;28;20049;-89
2022/04/16 08:18:13;;;;;;;8.10;4.40;;;;;;;;;;5013299;28;20046;-82
2022/04/16 08:20:40;;;;;;;7.57;4.95;;;;;;;;;;5013427;28;20189;-86
2022/04/16 08:23:08;;;;;;;7.10;4.00;;;;;;;;;;5012067;28;20568;-82
2022/04/16 08:25:47;;;;;;;7.85;4.40;;;;;;;;;;4993799;28;20042;-81
2022/04/16 08:28:16;;;;;;;11.18;4.90;;;;;;;;;;5011968;28;20070;-81
2022/04/16 08:30:43;;;;;;;6.35;3.88;;;;;;;;;;5008972;28;20074;-80
2022/04/16 08:33:14;;;;;;;8.23;5.13;;;;;;;;;;5009114;28;20575;-83
2022/04/16 08:35:45;;;;;;;7.43;4.63;;;;;;;;;;5007606;28;20053;-79
2022/04/16 08:38:15;;;;;;;6.93;4.10;;;;;;;;;;5008964;28;20627;-84
2022/04/16 08:40:43;;;;;;;7.03;4.25;;;;;;;;;;5005569;28;20050;-82
2022/04/16 08:43:09;;;;;;;7.25;4.63;;;;;;;;;;5007291;28;20045;-81
2022/04/16 08:45:38;;;;;;;11.05;5.30;;;;;;;;;;5008507;28;20072;-81
2022/04/16 08:48:06;;;;;;;9.15;6.25;;;;;;;;;;5009961;28;20121;-81
2022/04/16 08:50:33;;;;;;;8.90;5.88;;;;;;;;;;5008476;28;20050;-80
2022/04/16 08:53:00;;;;;;;6.75;3.83;;;;;;;;;;5004148;28;20116;-79
2022/04/16 08:55:27;;;;;;;7.85;4.57;;;;;;;;;;5006623;28;20092;-80
2022/04/16 08:57:55;;;;;;;7.10;4.20;;;;;;;;;;5012652;28;20065;-84
2022/04/16 09:00:21;;;;;;;8.27;4.70;;;;;;;;;;5012303;28;20077;-81
2022/04/16 09:02:56;;;;;;;7.18;4.15;;;;;;;;;;5007519;28;20070;-81
2022/04/16 09:05:22;;;;;;;7.63;4.20;;;;;;;;;;5007527;28;20038;-80
2022/04/16 09:07:51;;;;;;;7.18;4.05;;;;;;;;;;5014453;28;20046;-83
2022/04/16 09:10:17;;;;;;;7.63;4.63;;;;;;;;;;5010592;28;20045;-83
2022/04/16 09:12:46;;;;;;;6.32;4.07;;;;;;;;;;4987290;28;20074;-83
2022/04/16 09:15:14;;;;;;;6.75;3.85;;;;;;;;;;4993279;28;20139;-81
2022/04/16 09:17:41;;;;;;;6.90;3.70;;;;;;;;;;4987792;28;20113;-83
2022/04/16 09:20:14;;;;;;;7.32;4.20;;;;;;;;;;4988632;28;20074;-83
2022/04/16 09:22:41;;;;;;;6.28;3.53;;;;;;;;;;4991245;28;20168;-82
2022/04/16 09:25:14;;;;;;;7.50;4.53;;;;;;;;;;4990191;28;20077;-84
2022/04/16 09:27:43;;;;;;;5.97;3.70;;;;;;;;;;4989972;28;20046;-84
2022/04/16 09:30:10;;;;;;;6.32;4.30;;;;;;;;;;4988247;28;20043;-85
2022/04/16 09:32:43;;;;;;;7.03;4.63;;;;;;;;;;4990437;28;20488;-83
2022/04/16 09:35:25;;;;;;;6.35;4.38;;;;;;;;;;4990855;28;20082;-84
2022/04/16 09:37:56;;;;;;;6.28;4.30;;;;;;;;;;4989189;28;20066;-84
2022/04/16 09:40:25;;;;;;;7.45;4.32;;;;;;;;;;4988732;28;20133;-83
2022/04/16 09:42:55;;;;;;;6.60;4.43;;;;;;;;;;4988521;28;20042;-84
2022/04/16 09:45:23;;;;;;;5.45;3.78;;;;;;;;;;4990819;28;20081;-84
2022/04/16 09:47:52;;;;;;;6.05;4.13;;;;;;;;;;4989869;28;20043;-83
2022/04/16 09:50:23;;;;;;;6.45;4.15;;;;;;;;;;4990607;28;20598;-83
2022/04/16 09:52:53;;;;;;;5.57;3.42;;;;;;;;;;4992977;28;21398;-85
2022/04/16 09:55:22;;;;;;;6.80;4.50;;;;;;;;;;4989306;28;20038;-86
2022/04/16 09:57:51;;;;;;;6.53;3.90;;;;;;;;;;4984755;28;20043;-81
2022/04/16 10:00:18;;;;;;;6.63;4.40;;;;;;;;;;4986688;28;20053;-83
2022/04/16 10:02:46;;;;;;;6.32;3.90;;;;;;;;;;4991659;28;20043;-83
2022/04/16 10:05:13;;;;;;;5.75;3.78;;;;;;;;;;4990195;28;20085;-84
2022/04/16 10:07:44;;;;;;;4.35;2.90;;;;;;;;;;4987964;28;20070;-84
2022/04/16 10:10:25;;;;;;;5.70;3.30;;;;;;;;;;4989310;28;20065;-84
2022/04/16 10:13:03;;;;;;;5.20;3.50;;;;;;;;;;4997166;28;20062;-85
2022/04/16 10:15:57;;;;;;;6.00;4.28;;;;;;;;;;5009935;28;20054;-85
2022/04/16 10:18:25;;;;;;;5.18;3.72;;;;;;;;;;5010970;28;20041;-85
2022/04/16 10:20:53;;;;;;;5.32;3.33;;;;;;;;;;4979673;28;20049;-86
2022/04/16 10:23:28;;;;;;;6.00;3.60;;;;;;;;;;5016552;28;20050;-85
2022/04/16 10:26:09;;;;;;;4.75;2.90;;;;;;;;;;4994331;28;20045;-85
2022/04/16 10:28:41;;;;;;;6.15;3.80;;;;;;;;;;5013569;28;20046;-85
2022/04/16 10:31:19;;;;;;;5.43;3.38;;;;;;;;;;4983723;28;20611;-86
2022/04/16 10:33:57;;;;;;;5.47;3.03;;;;;;;;;;4995180;28;20046;-81
2022/04/16 10:36:26;;;;;;;4.63;3.10;;;;;;;;;;5011930;28;20073;-84
2022/04/16 10:38:53;;;;;;;5.82;3.33;;;;;;;;;;5011468;28;20651;-85
2022/04/16 10:41:21;;;;;;;4.57;2.90;;;;;;;;;;5012667;28;20108;-81
2022/04/16 10:43:57;;;;;;;4.60;3.25;;;;;;;;;;5011803;28;20104;-83
2022/04/16 10:46:24;;;;;;;5.15;3.50;;;;;;;;;;5012705;28;20038;-83
2022/04/16 10:48:52;;;;;;;5.55;3.45;;;;;;;;;;5010022;28;20077;-83
2022/04/16 10:51:22;;;;;;;4.20;2.92;;;;;;;;;;4995701;28;20049;-84
2022/04/16 10:53:50;;;;;;;4.45;2.72;;;;;;;;;;4993672;28;20046;-85
2022/04/16 10:56:21;;;;;;;4.53;3.03;;;;;;;;;;5011448;28;20065;-83
2022/04/16 10:58:49;;;;;;;4.55;2.90;;;;;;;;;;5010778;28;20049;-82
2022/04/16 11:01:25;;;;;;;6.50;2.67;;;;;;;;;;5009627;28;20148;-83
2022/04/16 11:03:53;;;;;;;4.15;2.92;;;;;;;;;;5007887;28;20125;-85
2022/04/16 11:06:21;;;;;;;8.93;3.47;;;;;;;;;;4992480;28;20089;-82
2022/04/16 11:08:49;;;;;;;4.60;3.10;;;;;;;;;;4991100;28;20131;-80
2022/04/16 11:11:19;;;;;;;4.55;3.22;;;;;;;;;;5010472;28;20073;-82
2022/04/16 11:13:46;;;;;;;3.80;2.80;;;;;;;;;;4988152;28;20442;-82
2022/04/16 11:16:13;;;;;;;5.82;2.97;;;;;;;;;;4990491;28;20078;-83
2022/04/16 11:18:43;;;;;;;4.68;3.25;;;;;;;;;;4996372;28;20446;-80
2022/04/16 11:21:11;;;;;;;4.20;2.90;;;;;;;;;;4991440;28;20054;-82
2022/04/16 11:23:45;;;;;;;4.28;2.85;;;;;;;;;;4993075;28;20073;-81
2022/04/16 11:34:30;;;;;;;5.15;2.85;;;;;;;;;;4990387;28;20049;-82
2022/04/16 11:36:58;;;;;;;4.65;3.20;;;;;;;;;;4994559;28;20050;-81
2022/04/16 11:39:27;;;;;;;4.47;2.85;;;;;;;;;;4995662;28;20482;-82
2022/04/16 11:41:55;;;;;;;4.70;3.15;;;;;;;;;;4998014;28;20446;-82
2022/04/16 11:44:41;;;;;;;4.20;2.83;;;;;;;;;;4995166;28;20066;-81
2022/04/16 11:47:11;;;;;;;4.50;2.42;;;;;;;;;;5000174;28;20054;-80
2022/04/16 11:49:39;;;;;;;4.32;2.80;;;;;;;;;;5001847;28;20046;-82
2022/04/16 11:52:07;;;;;;;6.32;3.13;;;;;;;;;;4995747;28;20055;-83
2022/04/16 11:54:40;;;;;;;4.53;2.67;;;;;;;;;;4993962;28;20598;-81
2022/04/16 11:57:07;;;;;;;4.32;2.67;;;;;;;;;;4993688;28;20074;-80
2022/04/16 11:59:35;;;;;;;5.65;3.03;;;;;;;;;;4996810;28;20039;-82
2022/04/16 12:02:07;;;;;;;4.68;2.50;;;;;;;;;;4995455;28;20056;-83
2022/04/16 12:04:44;;;;;;;4.15;2.60;;;;;;;;;;4998732;28;20054;-81
2022/04/16 12:07:12;;;;;;;4.88;3.28;;;;;;;;;;5000036;28;20072;-82
2022/04/16 12:09:44;;;;;;;4.78;3.30;;;;;;;;;;4996882;28;20108;-83
2022/04/16 12:12:13;;;;;;;5.47;3.05;;;;;;;;;;4998472;28;20078;-82
2022/04/16 12:14:56;;;;;;;4.57;2.88;;;;;;;;;;4993566;28;20090;-82
2022/04/16 12:17:24;;;;;;;4.53;3.00;;;;;;;;;;5000053;28;20054;-81
2022/04/16 12:20:05;;;;;;;5.15;3.03;;;;;;;;;;5002210;28;20654;-82
2022/04/16 12:22:32;;;;;;;5.25;3.05;;;;;;;;;;4998581;28;20054;-81
2022/04/16 12:25:08;;;;;;;4.70;2.92;;;;;;;;;;5000366;28;20122;-80
2022/04/16 12:27:35;;;;;;;4.95;3.20;;;;;;;;;;4995347;28;20046;-83
2022/04/16 12:30:04;;;;;;;6.28;3.20;;;;;;;;;;4987705;28;20090;-83
2022/04/16 12:32:32;;;;;;;7.20;3.75;;;;;;;;;;4989870;28;20074;-85
2022/04/16 12:35:00;;;;;;;5.63;3.20;;;;;;;;;;4989711;28;20054;-83
2022/04/16 12:37:27;;;;;;;4.80;3.67;;;;;;;;;;4987569;28;20475;-84
2022/04/16 12:39:57;;;;;;;5.10;3.15;;;;;;;;;;4994501;28;20076;-84
2022/04/16 12:42:24;;;;;;;4.78;3.00;;;;;;;;;;4987928;28;20050;-81
2022/04/16 12:44:51;;;;;;;6.70;4.00;;;;;;;;;;4987340;28;20096;-82
2022/04/16 12:47:19;;;;;;;7.55;3.85;;;;;;;;;;4988984;28;20070;-85
2022/04/16 12:49:47;;;;;;;4.57;3.13;;;;;;;;;;4990690;28;20042;-84
2022/04/16 12:52:14;;;;;;;5.82;3.30;;;;;;;;;;4989797;28;20085;-84
2022/04/16 12:54:42;;;;;;;5.00;3.22;;;;;;;;;;4974298;28;20140;-83
2022/04/16 12:57:09;;;;;;;5.65;3.65;;;;;;;;;;4988403;28;20407;-83
2022/04/16 12:59:36;;;;;;;4.53;3.03;;;;;;;;;;4974945;28;20086;-83
2022/04/16 13:02:04;;;;;;;4.53;2.70;;;;;;;;;;4991223;28;20050;-82
2022/04/16 13:04:33;;;;;;;4.07;2.70;;;;;;;;;;4988065;28;20084;-82
2022/04/16 13:07:02;;;;;;;5.15;2.83;;;;;;;;;;4972934;28;20149;-80
2022/04/16 13:09:29;;;;;;;4.53;2.78;;;;;;;;;;4988672;28;20058;-82
2022/04/16 13:11:57;;;;;;;4.80;3.05;;;;;;;;;;4972397;28;20128;-84
2022/04/16 13:14:24;;;;;;;4.10;2.90;;;;;;;;;;5008300;28;20061;-85
2022/04/16 13:16:51;;;;;;;6.30;3.13;;;;;;;;;;4971929;28;20061;-83
2022/04/16 13:19:18;;;;;;;5.45;3.33;;;;;;;;;;5002346;28;20054;-84
2022/04/16 13:21:47;;;;;;;4.75;3.25;;;;;;;;;;4991967;28;20069;-79
2022/04/16 13:24:15;;;;;;;4.00;2.30;;;;;;;;;;5004233;28;20077;-83
2022/04/16 13:26:43;;;;;;;10.23;2.92;;;;;;;;;;5007554;28;20046;-83
2022/04/16 13:29:10;;;;;;;4.90;2.67;;;;;;;;;;5009481;28;20057;-84
2022/04/16 13:31:37;;;;;;;6.50;3.10;;;;;;;;;;4989371;28;20524;-86
2022/04/16 13:34:03;;;;;;;4.70;2.80;;;;;;;;;;5008907;28;20109;-84
2022/04/16 13:36:30;;;;;;;4.30;2.60;;;;;;;;;;5012370;28;20093;-83
2022/04/16 13:38:59;;;;;;;4.43;3.00;;;;;;;;;;5010404;28;20121;-85
2022/04/16 13:41:40;;;;;;;4.50;2.65;;;;;;;;;;5010265;28;20116;-84
2022/04/16 13:44:10;;;;;;;3.65;2.47;;;;;;;;;;4982847;28;20069;-82
2022/04/16 13:46:37;;;;;;;4.97;2.80;;;;;;;;;;4989479;28;20069;-83
2022/04/16 13:49:04;;;;;;;4.63;2.80;;;;;;;;;;4989616;28;20496;-83
2022/04/16 13:51:32;;;;;;;4.35;2.70;;;;;;;;;;4991846;28;20052;-82
2022/04/16 13:54:03;;;;;;;4.68;3.20;;;;;;;;;;5011432;28;20057;-82
2022/04/16 13:56:30;;;;;;;4.97;3.10;;;;;;;;;;5014319;28;20545;-81
2022/04/16 13:58:58;;;;;;;5.47;3.17;;;;;;;;;;4979369;28;20081;-83
2022/04/16 14:01:25;;;;;;;11.00;3.78;;;;;;;;;;5015339;28;20050;-84
2022/04/16 14:03:53;;;;;;;5.38;2.85;;;;;;;;;;5011374;28;20081;-83
2022/04/16 14:06:22;;;;;;;10.88;3.88;;;;;;;;;;4993931;28;20509;-81
2022/04/16 14:08:49;;;;;;;4.55;3.08;;;;;;;;;;5013983;28;20066;-83
2022/04/16 14:11:18;;;;;;;6.25;3.00;;;;;;;;;;5013247;28;20085;-83
2022/04/16 14:13:45;;;;;;;5.20;2.65;;;;;;;;;;4994236;28;20054;-82
2022/04/16 14:16:11;;;;;;;3.88;2.45;;;;;;;;;;4988196;28;20051;-82
2022/04/16 14:18:39;;;;;;;4.90;2.70;;;;;;;;;;4994850;28;20062;-83
2022/04/16 14:21:07;;;;;;;5.10;2.78;;;;;;;;;;4994560;28;20035;-83
2022/04/16 14:23:34;;;;;;;4.40;2.55;;;;;;;;;;5002304;28;20575;-82
2022/04/16 14:26:01;;;;;;;4.90;2.80;;;;;;;;;;4990523;28;20056;-81
2022/04/16 14:28:29;;;;;;;4.38;2.58;;;;;;;;;;4992696;28;20062;-82
2022/04/16 14:30:56;;;;;;;4.55;2.50;;;;;;;;;;4992437;28;20086;-84
2022/04/16 14:33:24;;;;;;;3.15;1.88;;;;;;;;;;4993650;28;20074;-85
2022/04/16 14:35:51;;;;;;;4.53;2.33;;;;;;;;;;4991439;28;20074;-82
2022/04/16 14:38:20;;;;;;;2.45;1.60;;;;;;;;;;4992616;28;20109;-83
2022/04/16 14:40:47;;;;;;;5.07;2.63;;;;;;;;;;4989661;28;20415;-81
2022/04/16 14:43:14;;;;;;;2.85;1.88;;;;;;;;;;4997291;28;20066;-82
2022/04/16 14:45:44;;;;;;;3.97;1.83;;;;;;;;;;4992861;28;20081;-82
2022/04/16 14:48:11;;;;;;;3.17;1.92;;;;;;;;;;4999030;28;20469;-82
2022/04/16 14:50:38;;;;;;;2.47;1.55;;;;;;;;;;4997994;28;20070;-82
2022/04/16 14:53:06;;;;;;;3.15;2.00;;;;;;;;;;4982804;28;20082;-82
2022/04/16 14:55:33;;;;;;;2.60;2.08;;;;;;;;;;4995613;28;20046;-83
2022/04/16 14:57:59;;;;;;;3.67;2.00;;;;;;;;;;4997702;28;20042;-83
2022/04/16 15:00:26;;;;;;;2.65;1.90;;;;;;;;;;4997763;28;20042;-82
2022/04/16 15:02:54;;;;;;;3.10;1.70;;;;;;;;;;4986035;28;20085;-85
2022/04/16 15:05:21;;;;;;;4.43;1.90;;;;;;;;;;4996956;28;20074;-84
2022/04/16 15:07:47;;;;;;;4.28;1.40;;;;;;;;;;4997761;28;20077;-83
2022/04/16 15:10:14;;;;;;;2.67;1.63;;;;;;;;;;4995580;28;20430;-82
2022/04/16 15:12:41;;;;;;;4.18;1.98;;;;;;;;;;4995632;28;20069;-83
2022/04/16 15:15:09;;;;;;;3.30;1.98;;;;;;;;;;5015808;28;20092;-82
2022/04/16 15:17:37;;;;;;;2.40;1.48;;;;;;;;;;5015763;28;20042;-81
2022/04/16 15:20:06;;;;;;;3.58;2.25;;;;;;;;;;5013344;28;20528;-81